createdAt,value
2023-05-25T00:01:01.827Z,9.43
2023-05-25T00:01:50.577Z,9.53
2023-05-25T00:02:50.713Z,9.99
2023-05-25T00:03:50.607Z,10.10
2023-05-25T00:04:50.562Z,9.52
2023-05-25T00:05:50.557Z,9.11
2023-05-25T00:06:50.559Z,10.18
2023-05-25T00:07:50.564Z,8.96
2023-05-25T00:08:50.565Z,8.85
2023-05-25T00:09:50.574Z,9.10
2023-05-25T00:10:50.571Z,8.63
2023-05-25T00:11:50.602Z,9.47
2023-05-25T00:12:50.581Z,9.24
2023-05-25T00:13:50.570Z,9.61
2023-05-25T00:14:50.586Z,9.83
2023-05-25T00:15:50.574Z,9.42
2023-05-25T00:16:50.580Z,8.95
2023-05-25T00:17:50.610Z,9.07
2023-05-25T00:18:50.558Z,9.06
2023-05-25T00:19:50.601Z,9.12
2023-05-25T00:20:50.580Z,8.55
2023-05-25T00:21:50.566Z,8.99
2023-05-25T00:22:50.616Z,8.87
2023-05-25T00:23:50.677Z,9.10
2023-05-25T00:24:50.749Z,9.07
2023-05-25T00:25:50.799Z,9.56
2023-05-25T00:26:50.862Z,9.53
2023-05-25T00:27:50.952Z,8.64
2023-05-25T00:28:50.989Z,8.54
2023-05-25T00:29:51.055Z,9.03
2023-05-25T00:30:51.785Z,8.43
2023-05-25T00:31:51.165Z,8.10
2023-05-25T00:32:51.256Z,8.09
2023-05-25T00:33:51.284Z,8.89
2023-05-25T00:34:51.343Z,9.08
2023-05-25T00:35:51.418Z,9.27
2023-05-25T00:36:51.470Z,9.14
2023-05-25T00:37:51.527Z,9.08
2023-05-25T00:38:51.575Z,8.26
2023-05-25T00:39:51.624Z,9.25
2023-05-25T00:40:51.693Z,9.16
2023-05-25T00:41:51.741Z,8.90
2023-05-25T00:42:51.804Z,9.07
2023-05-25T00:43:51.888Z,9.02
2023-05-25T00:44:51.948Z,7.57
2023-05-25T00:45:51.979Z,9.29
2023-05-25T00:46:52.450Z,8.69
2023-05-25T00:47:52.075Z,8.39
2023-05-25T00:48:52.029Z,9.35
2023-05-25T00:49:52.088Z,7.96
2023-05-25T00:50:52.144Z,8.69
2023-05-25T00:51:52.201Z,9.10
2023-05-25T00:52:52.260Z,8.89
2023-05-25T00:53:52.329Z,8.58
2023-05-25T00:54:52.360Z,8.44
2023-05-25T00:55:52.412Z,8.32
2023-05-25T00:56:52.480Z,9.17
2023-05-25T00:57:52.538Z,8.53
2023-05-25T00:58:52.662Z,8.23
2023-05-25T00:59:52.685Z,8.22
2023-05-25T01:00:52.708Z,8.36
2023-05-25T01:01:52.809Z,9.25
2023-05-25T01:02:53.125Z,8.15
2023-05-25T01:03:52.899Z,9.31
2023-05-25T01:04:52.944Z,8.61
2023-05-25T01:05:52.998Z,8.56
2023-05-25T01:06:53.065Z,8.66
2023-05-25T01:07:53.111Z,8.95
2023-05-25T01:08:53.190Z,8.54
2023-05-25T01:09:53.220Z,8.87
2023-05-25T01:10:53.288Z,8.89
2023-05-25T01:11:53.346Z,8.54
2023-05-25T01:12:53.406Z,8.63
2023-05-25T01:13:53.462Z,9.09
2023-05-25T01:14:53.532Z,8.22
2023-05-25T01:15:53.713Z,7.98
2023-05-25T01:16:53.698Z,8.51
2023-05-25T01:17:53.755Z,8.62
2023-05-25T01:18:53.755Z,8.73
2023-05-25T01:20:09.038Z,7.98
2023-05-25T01:20:53.833Z,8.58
2023-05-25T01:21:53.797Z,8.51
2023-05-25T01:22:53.803Z,8.09
2023-05-25T01:23:53.795Z,8.41
2023-05-25T01:24:53.794Z,8.24
2023-05-25T01:25:53.791Z,8.01
2023-05-25T01:26:53.791Z,7.84
2023-05-25T01:27:53.797Z,7.92
2023-05-25T01:28:53.800Z,8.46
2023-05-25T01:29:53.800Z,8.13
2023-05-25T01:30:53.795Z,8.76
2023-05-25T01:31:53.880Z,8.22
2023-05-25T01:32:53.921Z,8.14
2023-05-25T01:33:53.792Z,8.45
2023-05-25T01:34:53.793Z,8.94
2023-05-25T01:35:53.786Z,7.94
2023-05-25T01:36:53.805Z,7.97
2023-05-25T01:37:53.786Z,8.18
2023-05-25T01:38:53.786Z,8.58
2023-05-25T01:39:53.844Z,9.02
2023-05-25T01:40:53.898Z,8.46
2023-05-25T01:41:54.776Z,8.61
2023-05-25T01:42:54.012Z,8.44
2023-05-25T01:43:54.076Z,8.09
2023-05-25T01:44:54.132Z,8.29
2023-05-25T01:45:54.188Z,8.43
2023-05-25T01:46:54.247Z,8.44
2023-05-25T01:47:54.345Z,8.56
2023-05-25T01:48:54.368Z,8.43
2023-05-25T01:49:54.425Z,7.94
2023-05-25T01:50:54.474Z,8.66
2023-05-25T01:51:54.592Z,8.20
2023-05-25T01:52:54.587Z,8.14
2023-05-25T01:53:54.656Z,7.83
2023-05-25T01:54:54.709Z,8.66
2023-05-25T01:55:54.761Z,7.56
2023-05-25T01:56:54.819Z,7.86
2023-05-25T01:57:54.877Z,8.38
2023-05-25T01:58:54.936Z,8.71
2023-05-25T01:59:54.988Z,8.61
2023-05-25T02:00:55.086Z,8.59
2023-05-25T02:01:55.223Z,7.84
2023-05-25T02:02:55.199Z,7.88
2023-05-25T02:03:55.260Z,7.57
2023-05-25T02:04:55.270Z,7.82
2023-05-25T02:05:55.334Z,8.25
2023-05-25T02:06:55.386Z,8.29
2023-05-25T02:07:55.450Z,7.61
2023-05-25T02:08:55.494Z,8.07
2023-05-25T02:09:55.547Z,8.15
2023-05-25T02:10:55.598Z,7.67
2023-05-25T02:11:55.651Z,8.03
2023-05-25T02:12:55.706Z,8.37
2023-05-25T02:13:55.760Z,8.38
2023-05-25T02:14:55.815Z,6.60
2023-05-25T02:15:55.879Z,8.27
2023-05-25T02:16:55.922Z,8.20
2023-05-25T02:17:56.046Z,7.77
2023-05-25T02:18:56.041Z,8.13
2023-05-25T02:19:56.175Z,8.00
2023-05-25T02:20:56.164Z,7.61
2023-05-25T02:21:56.224Z,7.56
2023-05-25T02:22:56.278Z,7.95
2023-05-25T02:23:56.346Z,7.32
2023-05-25T02:24:56.422Z,7.49
2023-05-25T02:25:56.477Z,7.42
2023-05-25T02:26:56.530Z,7.68
2023-05-25T02:27:56.598Z,8.40
2023-05-25T02:28:56.680Z,7.79
2023-05-25T02:29:56.710Z,7.65
2023-05-25T02:30:56.809Z,8.30
2023-05-25T02:31:56.823Z,8.22
2023-05-25T02:32:56.908Z,7.73
2023-05-25T02:33:56.958Z,7.20
2023-05-25T02:34:57.020Z,8.00
2023-05-25T02:35:57.084Z,7.20
2023-05-25T02:36:57.118Z,7.67
2023-05-25T02:37:57.182Z,7.67
2023-05-25T02:38:57.247Z,8.54
2023-05-25T02:39:57.350Z,7.37
2023-05-25T02:40:57.361Z,7.38
2023-05-25T02:41:57.445Z,7.96
2023-05-25T02:42:57.474Z,7.54
2023-05-25T02:43:57.534Z,7.17
2023-05-25T02:44:57.595Z,8.75
2023-05-25T02:45:57.662Z,7.95
2023-05-25T02:46:57.776Z,7.40
2023-05-25T02:47:57.834Z,7.54
2023-05-25T02:48:57.838Z,7.40
2023-05-25T02:49:57.904Z,8.51
2023-05-25T02:50:57.983Z,8.29
2023-05-25T02:51:58.058Z,7.59
2023-05-25T02:52:58.127Z,7.90
2023-05-25T02:53:58.139Z,7.86
2023-05-25T02:54:58.202Z,7.39
2023-05-25T02:55:58.259Z,8.44
2023-05-25T02:56:58.314Z,7.11
2023-05-25T02:57:58.365Z,6.84
2023-05-25T02:58:58.418Z,7.03
2023-05-25T02:59:58.466Z,7.43
2023-05-25T03:00:58.562Z,7.39
2023-05-25T03:01:58.582Z,8.96
2023-05-25T03:02:58.704Z,7.41
2023-05-25T03:03:58.812Z,7.35
2023-05-25T03:04:59.256Z,8.55
2023-05-25T03:05:58.882Z,7.60
2023-05-25T03:06:58.930Z,6.83
2023-05-25T03:07:59.020Z,7.96
2023-05-25T03:08:59.066Z,8.17
2023-05-25T03:09:59.092Z,8.13
2023-05-25T03:10:59.160Z,7.37
2023-05-25T03:11:59.216Z,7.72
2023-05-25T03:12:59.293Z,7.50
2023-05-25T03:13:59.354Z,7.60
2023-05-25T03:14:59.417Z,7.71
2023-05-25T03:15:59.467Z,6.96
2023-05-25T03:16:59.657Z,7.81
2023-05-25T03:17:59.618Z,6.91
2023-05-25T03:18:59.645Z,7.51
2023-05-25T03:19:59.752Z,7.53
2023-05-25T03:20:59.781Z,7.28
2023-05-25T03:21:59.840Z,7.37
2023-05-25T03:22:59.905Z,7.58
2023-05-25T03:23:59.993Z,7.08
2023-05-25T03:25:00.029Z,6.85
2023-05-25T03:26:00.163Z,7.33
2023-05-25T03:27:00.159Z,7.07
2023-05-25T03:28:00.223Z,7.34
2023-05-25T03:29:00.286Z,7.29
2023-05-25T03:30:00.350Z,7.16
2023-05-25T03:31:00.409Z,7.80
2023-05-25T03:32:00.606Z,6.69
2023-05-25T03:33:00.612Z,7.75
2023-05-25T03:34:00.589Z,7.80
2023-05-25T03:35:00.666Z,7.66
2023-05-25T03:36:00.710Z,6.29
2023-05-25T03:37:00.779Z,7.87
2023-05-25T03:38:00.830Z,7.52
2023-05-25T03:39:00.895Z,7.78
2023-05-25T03:40:01.031Z,8.20
2023-05-25T03:41:01.002Z,8.00
2023-05-25T03:42:01.097Z,6.65
2023-05-25T03:43:01.120Z,7.16
2023-05-25T03:44:01.190Z,7.03
2023-05-25T03:45:01.253Z,7.51
2023-05-25T03:46:01.327Z,6.95
2023-05-25T03:47:01.387Z,7.90
2023-05-25T03:48:01.479Z,7.40
2023-05-25T03:49:01.500Z,7.12
2023-05-25T03:50:01.553Z,6.99
2023-05-25T03:51:01.610Z,6.68
2023-05-25T03:52:01.699Z,7.51
2023-05-25T03:53:01.746Z,7.32
2023-05-25T03:54:01.802Z,6.71
2023-05-25T03:55:01.863Z,6.43
2023-05-25T03:56:01.953Z,6.93
2023-05-25T03:57:01.993Z,8.41
2023-05-25T03:58:02.093Z,7.59
2023-05-25T03:59:02.095Z,7.20
2023-05-25T04:00:02.167Z,7.13
2023-05-25T04:01:04.348Z,6.73
2023-05-25T04:02:02.209Z,7.35
2023-05-25T04:03:02.326Z,6.49
2023-05-25T04:04:02.361Z,7.39
2023-05-25T04:05:02.209Z,7.48
2023-05-25T04:06:02.246Z,7.39
2023-05-25T04:07:02.215Z,7.05
2023-05-25T04:08:02.225Z,7.23
2023-05-25T04:09:02.226Z,7.17
2023-05-25T04:10:02.232Z,6.90
2023-05-25T04:11:02.264Z,7.59
2023-05-25T04:12:02.282Z,7.43
2023-05-25T04:13:02.221Z,7.50
2023-05-25T04:14:02.247Z,7.16
2023-05-25T04:15:02.223Z,7.90
2023-05-25T04:16:02.250Z,7.35
2023-05-25T04:17:02.226Z,7.76
2023-05-25T04:18:02.258Z,6.23
2023-05-25T04:19:02.228Z,6.90
2023-05-25T04:20:02.240Z,7.52
2023-05-25T04:21:02.200Z,6.95
2023-05-25T04:22:02.213Z,7.33
2023-05-25T04:23:02.224Z,6.97
2023-05-25T04:24:02.217Z,7.00
2023-05-25T04:25:02.219Z,6.55
2023-05-25T04:26:02.215Z,6.80
2023-05-25T04:27:02.206Z,7.40
2023-05-25T04:28:02.287Z,7.12
2023-05-25T04:29:02.341Z,6.03
2023-05-25T04:30:02.373Z,6.77
2023-05-25T04:31:02.434Z,7.59
2023-05-25T04:32:02.588Z,7.09
2023-05-25T04:33:02.699Z,6.87
2023-05-25T04:34:02.613Z,7.22
2023-05-25T04:35:02.676Z,6.66
2023-05-25T04:36:02.730Z,6.71
2023-05-25T04:37:02.792Z,7.01
2023-05-25T04:38:03.091Z,7.64
2023-05-25T04:39:03.018Z,7.06
2023-05-25T04:40:02.982Z,6.55
2023-05-25T04:41:03.063Z,6.25
2023-05-25T04:42:03.105Z,7.18
2023-05-25T04:43:03.176Z,6.59
2023-05-25T04:45:02.243Z,6.38
2023-05-25T04:46:03.274Z,6.31
2023-05-25T04:47:03.238Z,7.28
2023-05-25T04:48:03.315Z,6.67
2023-05-25T04:49:03.241Z,6.25
2023-05-25T04:50:03.260Z,6.05
2023-05-25T04:51:03.280Z,7.33
2023-05-25T04:52:03.257Z,6.67
2023-05-25T04:53:03.256Z,6.86
2023-05-25T04:54:03.257Z,6.57
2023-05-25T04:55:03.270Z,6.66
2023-05-25T04:56:03.266Z,6.51
2023-05-25T04:57:03.255Z,6.67
2023-05-25T04:58:03.254Z,6.92
2023-05-25T04:59:03.257Z,6.48
2023-05-25T05:00:03.305Z,6.56
2023-05-25T05:01:03.320Z,6.62
2023-05-25T05:02:03.263Z,6.66
2023-05-25T05:03:03.331Z,6.20
2023-05-25T05:04:03.311Z,6.50
2023-05-25T05:05:03.276Z,7.13
2023-05-25T05:06:03.304Z,6.57
2023-05-25T05:07:03.277Z,6.34
2023-05-25T05:08:03.282Z,7.11
2023-05-25T05:09:03.305Z,7.25
2023-05-25T05:10:03.372Z,6.89
2023-05-25T05:11:03.437Z,6.14
2023-05-25T05:12:03.480Z,6.32
2023-05-25T05:13:03.542Z,5.77
2023-05-25T05:14:03.610Z,5.40
2023-05-25T05:15:03.651Z,5.07
2023-05-25T05:16:03.742Z,5.39
2023-05-25T05:17:03.841Z,5.38
2023-05-25T05:18:03.862Z,5.53
2023-05-25T05:19:03.906Z,4.70
2023-05-25T05:20:03.989Z,5.48
2023-05-25T05:21:04.010Z,5.13
2023-05-25T05:22:04.085Z,4.88
2023-05-25T05:23:04.129Z,5.33
2023-05-25T05:24:04.366Z,3.81
2023-05-25T05:25:04.244Z,3.71
2023-05-25T05:26:05.291Z,4.37
2023-05-25T05:27:04.913Z,4.26
2023-05-25T05:28:04.400Z,3.98
2023-05-25T05:29:04.456Z,3.65
2023-05-25T05:30:04.557Z,4.12
2023-05-25T05:31:04.637Z,3.42
2023-05-25T05:32:04.750Z,3.66
2023-05-25T05:33:04.808Z,3.93
2023-05-25T05:34:04.785Z,3.50
2023-05-25T05:35:04.791Z,3.34
2023-05-25T05:36:04.840Z,3.92
2023-05-25T05:37:04.914Z,3.66
2023-05-25T05:38:04.954Z,3.06
2023-05-25T05:39:05.003Z,3.39
2023-05-25T05:40:05.056Z,3.36
2023-05-25T05:41:05.118Z,3.38
2023-05-25T05:42:05.171Z,3.46
2023-05-25T05:43:05.857Z,3.06
2023-05-25T05:44:05.369Z,3.23
2023-05-25T05:45:05.366Z,3.28
2023-05-25T05:46:13.302Z,3.40
2023-05-25T05:47:05.417Z,3.39
2023-05-25T05:48:05.969Z,3.23
2023-05-25T05:49:05.872Z,3.35
2023-05-25T05:50:05.428Z,3.10
2023-05-25T05:51:05.416Z,2.68
2023-05-25T05:52:05.419Z,2.81
2023-05-25T05:53:05.435Z,2.65
2023-05-25T05:54:05.875Z,2.57
2023-05-25T05:55:21.059Z,2.82
2023-05-25T05:57:38.244Z,2.23
2023-05-25T05:58:05.439Z,2.28
2023-05-25T05:59:05.876Z,2.47
2023-05-25T06:00:08.697Z,2.38
2023-05-25T06:01:09.096Z,2.37
2023-05-25T06:02:12.940Z,2.74
2023-05-25T06:04:21.080Z,2.55
2023-05-25T06:05:05.467Z,2.15
2023-05-25T06:07:12.855Z,2.13
2023-05-25T06:08:06.233Z,2.36
2023-05-25T06:09:06.475Z,2.12
2023-05-25T06:10:21.099Z,2.08
2023-05-25T06:11:08.743Z,2.03
2023-05-25T06:12:08.711Z,2.56
2023-05-25T06:13:05.475Z,2.37
2023-05-25T06:14:05.496Z,1.97
2023-05-25T06:15:21.092Z,2.27
2023-05-25T06:16:12.895Z,1.89
2023-05-25T06:17:05.639Z,1.96
2023-05-25T06:18:05.545Z,2.01
2023-05-25T06:19:05.497Z,2.07
2023-05-25T06:20:05.540Z,2.10
2023-05-25T06:21:06.484Z,2.12
2023-05-25T06:22:06.498Z,1.94
2023-05-25T06:23:12.909Z,1.88
2023-05-25T06:24:05.505Z,2.10
2023-05-25T06:25:05.490Z,2.51
2023-05-25T06:26:05.495Z,2.48
2023-05-25T06:27:05.506Z,1.94
2023-05-25T06:28:05.524Z,2.46
2023-05-25T06:29:06.533Z,2.76
2023-05-25T06:30:05.495Z,2.22
2023-05-25T06:31:05.892Z,2.88
2023-05-25T06:32:08.768Z,2.66
2023-05-25T06:33:05.565Z,2.08
2023-05-25T06:34:05.495Z,2.50
2023-05-25T06:35:05.508Z,2.14
2023-05-25T06:36:05.537Z,2.72
2023-05-25T06:37:05.514Z,2.71
2023-05-25T06:38:05.526Z,2.45
2023-05-25T06:39:05.983Z,2.75
2023-05-25T06:40:05.550Z,2.70
2023-05-25T06:41:05.626Z,2.65
2023-05-25T06:42:05.726Z,2.41
2023-05-25T06:43:21.136Z,2.17
2023-05-25T06:44:05.919Z,2.53
2023-05-25T06:45:05.535Z,2.48
2023-05-25T06:46:37.453Z,2.56
2023-05-25T06:47:05.566Z,2.51
2023-05-25T06:48:06.595Z,2.56
2023-05-25T06:49:21.503Z,2.67
2023-05-25T06:50:05.568Z,2.38
2023-05-25T06:51:05.582Z,2.42
2023-05-25T06:52:05.667Z,2.87
2023-05-25T06:54:12.985Z,2.17
2023-05-25T06:55:21.172Z,2.37
2023-05-25T06:56:08.832Z,2.39
2023-05-25T06:57:05.574Z,2.16
2023-05-25T06:58:05.576Z,2.43
2023-05-25T06:59:05.611Z,2.02
2023-05-25T07:00:05.592Z,2.17
2023-05-25T07:01:08.788Z,2.67
2023-05-25T07:02:05.582Z,2.32
2023-05-25T07:03:05.607Z,2.11
2023-05-25T07:04:05.913Z,2.26
2023-05-25T07:05:05.673Z,2.32
2023-05-25T07:06:05.586Z,2.20
2023-05-25T07:07:05.579Z,2.04
2023-05-25T07:08:06.060Z,2.47
2023-05-25T07:09:05.587Z,2.37
2023-05-25T07:10:05.580Z,2.39
2023-05-25T07:11:05.564Z,2.18
2023-05-25T07:12:05.566Z,2.50
2023-05-25T07:13:05.578Z,2.49
2023-05-25T07:14:05.555Z,2.00
2023-05-25T07:15:05.566Z,2.01
2023-05-25T07:16:05.605Z,1.81
2023-05-25T07:17:05.551Z,2.22
2023-05-25T07:18:05.581Z,2.35
2023-05-25T07:19:05.563Z,2.51
2023-05-25T07:20:08.843Z,1.99
2023-05-25T07:21:06.157Z,2.23
2023-05-25T07:22:05.540Z,1.96
2023-05-25T07:23:12.995Z,1.76
2023-05-25T07:24:06.568Z,2.05
2023-05-25T07:25:21.166Z,2.13
2023-05-25T07:26:06.319Z,2.12
2023-05-25T07:27:05.530Z,1.88
2023-05-25T07:28:05.613Z,2.45
2023-05-25T07:29:06.893Z,2.14
2023-05-25T07:30:05.538Z,2.10
2023-05-25T07:31:05.530Z,1.60
2023-05-25T07:32:05.519Z,2.01
2023-05-25T07:33:08.720Z,2.15
2023-05-25T07:34:05.977Z,1.97
2023-05-25T07:35:05.509Z,1.97
2023-05-25T07:36:05.527Z,2.38
2023-05-25T07:37:05.522Z,1.70
2023-05-25T07:38:12.897Z,1.64
2023-05-25T07:39:05.935Z,1.94
2023-05-25T07:40:05.489Z,2.07
2023-05-25T07:41:05.501Z,1.65
2023-05-25T07:42:06.479Z,1.72
2023-05-25T07:43:08.266Z,1.50
2023-05-25T07:45:21.081Z,1.76
2023-05-25T07:46:05.459Z,1.91
2023-05-25T07:47:05.559Z,1.69
2023-05-25T07:48:06.015Z,1.92
2023-05-25T07:49:05.421Z,1.87
2023-05-25T07:50:05.421Z,1.77
2023-05-25T07:51:05.424Z,2.15
2023-05-25T07:52:05.419Z,2.30
2023-05-25T07:53:05.419Z,2.70
2023-05-25T07:54:05.456Z,2.14
2023-05-25T07:55:05.456Z,2.00
2023-05-25T07:56:05.413Z,2.21
2023-05-25T07:57:05.386Z,1.92
2023-05-25T07:58:05.447Z,1.69
2023-05-25T07:59:06.362Z,1.63
2023-05-25T08:00:05.357Z,1.89
2023-05-25T08:01:05.468Z,1.76
2023-05-25T08:02:05.893Z,1.67
2023-05-25T08:03:08.627Z,2.12
2023-05-25T08:04:05.409Z,1.96
2023-05-25T08:05:05.513Z,1.81
2023-05-25T08:06:05.288Z,1.62
2023-05-25T08:07:05.282Z,1.87
2023-05-25T08:08:05.434Z,1.71
2023-05-25T08:09:05.428Z,2.06
2023-05-25T08:10:05.238Z,1.94
2023-05-25T08:11:05.250Z,2.11
2023-05-25T08:12:24.607Z,2.14
2023-05-25T08:13:05.197Z,2.01
2023-05-25T08:14:05.429Z,2.16
2023-05-25T08:15:05.174Z,1.85
2023-05-25T08:16:05.174Z,1.45
2023-05-25T08:17:05.219Z,1.83
2023-05-25T08:18:05.450Z,1.43
2023-05-25T08:19:05.161Z,1.81
2023-05-25T08:20:05.233Z,1.60
2023-05-25T08:21:05.160Z,1.74
2023-05-25T08:22:05.144Z,1.74
2023-05-25T08:23:05.123Z,1.95
2023-05-25T08:24:05.453Z,1.52
2023-05-25T08:25:05.172Z,1.83
2023-05-25T08:26:15.536Z,1.81
2023-05-25T08:27:05.137Z,1.70
2023-05-25T08:28:05.111Z,1.59
2023-05-25T08:29:05.100Z,1.57
2023-05-25T08:30:05.081Z,1.26
2023-05-25T08:31:05.149Z,1.41
2023-05-25T08:32:05.082Z,2.33
2023-05-25T08:33:05.105Z,1.65
2023-05-25T08:34:05.451Z,1.95
2023-05-25T08:35:05.043Z,1.77
2023-05-25T08:36:05.082Z,1.71
2023-05-25T08:37:05.040Z,2.20
2023-05-25T08:38:05.426Z,1.90
2023-05-25T08:39:05.446Z,1.88
2023-05-25T08:40:05.018Z,2.36
2023-05-25T08:41:05.015Z,1.95
2023-05-25T08:42:05.033Z,2.31
2023-05-25T08:43:05.019Z,2.15
2023-05-25T08:44:05.462Z,2.27
2023-05-25T08:46:20.600Z,1.78
2023-05-25T08:47:05.005Z,2.02
2023-05-25T08:48:05.094Z,1.80
2023-05-25T08:49:05.096Z,1.62
2023-05-25T08:50:04.942Z,2.11
2023-05-25T08:51:04.932Z,1.79
2023-05-25T08:52:04.947Z,2.06
2023-05-25T08:53:04.911Z,1.73
2023-05-25T08:54:04.900Z,1.63
2023-05-25T08:55:04.931Z,1.58
2023-05-25T08:56:04.953Z,1.81
2023-05-25T08:57:04.889Z,1.59
2023-05-25T08:58:04.864Z,1.78
2023-05-25T08:59:06.726Z,1.47
2023-05-25T09:00:04.858Z,1.75
2023-05-25T09:01:04.936Z,1.76
2023-05-25T09:02:04.857Z,1.72
2023-05-25T09:03:04.958Z,1.75
2023-05-25T09:04:05.073Z,1.97
2023-05-25T09:05:04.823Z,1.63
2023-05-25T09:06:04.816Z,1.88
2023-05-25T09:07:10.733Z,1.68
2023-05-25T09:08:04.810Z,1.56
2023-05-25T09:09:04.814Z,2.14
2023-05-25T09:10:04.819Z,2.07
2023-05-25T09:11:04.799Z,1.95
2023-05-25T09:12:04.784Z,1.93
2023-05-25T09:13:19.704Z,2.13
2023-05-25T09:14:05.481Z,1.82
2023-05-25T09:15:04.754Z,1.82
2023-05-25T09:16:07.973Z,1.67
2023-05-25T09:17:04.713Z,1.83
2023-05-25T09:18:05.481Z,1.88
2023-05-25T09:19:04.700Z,1.91
2023-05-25T09:20:04.696Z,2.21
2023-05-25T09:21:04.748Z,1.95
2023-05-25T09:22:15.073Z,1.73
2023-05-25T09:23:04.984Z,1.76
2023-05-25T09:24:04.692Z,1.77
2023-05-25T09:25:04.660Z,2.24
2023-05-25T09:26:04.951Z,1.96
2023-05-25T09:27:04.642Z,2.21
2023-05-25T09:28:24.240Z,2.08
2023-05-25T09:29:04.665Z,2.35
2023-05-25T09:30:04.950Z,3.10
2023-05-25T09:31:04.659Z,2.74
2023-05-25T09:32:05.660Z,2.92
2023-05-25T09:34:11.987Z,3.65
2023-05-25T09:35:07.783Z,3.08
2023-05-25T09:36:36.616Z,3.48
2023-05-25T09:37:05.043Z,3.93
2023-05-25T09:38:12.283Z,3.93
2023-05-25T09:39:05.033Z,3.17
2023-05-25T09:40:04.495Z,3.18
2023-05-25T09:41:04.485Z,3.49
2023-05-25T09:43:05.444Z,3.61
2023-05-25T09:44:11.185Z,3.02
2023-05-25T09:45:04.469Z,3.43
2023-05-25T09:46:04.449Z,3.52
2023-05-25T09:47:04.532Z,3.85
2023-05-25T09:48:04.430Z,3.73
2023-05-25T09:49:04.335Z,4.10
2023-05-25T09:50:04.305Z,3.58
2023-05-25T09:51:04.334Z,3.67
2023-05-25T09:52:04.262Z,3.59
2023-05-25T09:53:07.500Z,3.49
2023-05-25T09:54:11.877Z,3.52
2023-05-25T09:55:04.273Z,2.66
2023-05-25T09:56:04.481Z,3.74
2023-05-25T09:57:04.238Z,3.43
2023-05-25T09:58:04.153Z,3.46
2023-05-25T09:59:04.533Z,3.22
2023-05-25T10:00:05.187Z,2.38
2023-05-25T10:01:04.131Z,2.75
2023-05-25T10:02:04.315Z,3.45
2023-05-25T10:03:04.552Z,2.38
2023-05-25T10:04:05.448Z,2.83
2023-05-25T10:05:04.278Z,2.60
2023-05-25T10:06:03.531Z,3.12
2023-05-25T10:07:04.264Z,2.35
2023-05-25T10:08:04.502Z,2.47
2023-05-25T10:09:04.226Z,2.20
2023-05-25T10:10:05.502Z,2.13
2023-05-25T10:11:07.537Z,2.46
2023-05-25T10:12:04.217Z,1.99
2023-05-25T10:13:04.222Z,1.98
2023-05-25T10:14:07.804Z,2.24
2023-05-25T10:15:04.142Z,2.84
2023-05-25T10:16:04.244Z,2.18
2023-05-25T10:17:04.116Z,1.88
2023-05-25T10:18:04.112Z,2.15
2023-05-25T10:19:04.502Z,2.25
2023-05-25T10:20:04.071Z,1.87
2023-05-25T10:21:05.019Z,1.44
2023-05-25T10:22:04.177Z,1.73
2023-05-25T10:23:03.957Z,1.83
2023-05-25T10:24:03.951Z,1.77
2023-05-25T10:25:04.060Z,1.88
2023-05-25T10:26:03.896Z,2.27
2023-05-25T10:27:14.601Z,1.89
2023-05-25T10:28:03.854Z,2.60
2023-05-25T10:29:03.985Z,1.70
2023-05-25T10:30:03.818Z,1.69
2023-05-25T10:31:03.997Z,1.69
2023-05-25T10:32:03.912Z,1.51
2023-05-25T10:33:03.816Z,1.65
2023-05-25T10:34:03.978Z,1.82
2023-05-25T10:35:03.757Z,1.54
2023-05-25T10:37:03.685Z,1.82
2023-05-25T10:38:03.680Z,1.63
2023-05-25T10:39:03.980Z,2.09
2023-05-25T10:40:03.641Z,1.65
2023-05-25T10:41:03.982Z,1.68
2023-05-25T10:42:03.590Z,1.76
2023-05-25T10:43:03.572Z,1.64
2023-05-25T10:44:03.990Z,1.92
2023-05-25T10:45:03.546Z,1.67
2023-05-25T10:46:03.530Z,1.98
2023-05-25T10:47:03.564Z,2.04
2023-05-25T10:48:03.521Z,1.89
2023-05-25T10:49:03.476Z,1.57
2023-05-25T10:50:03.461Z,1.84
2023-05-25T10:51:03.452Z,1.77
2023-05-25T10:52:03.408Z,2.12
2023-05-25T10:53:03.418Z,1.71
2023-05-25T10:54:03.534Z,1.71
2023-05-25T10:55:03.485Z,1.91
2023-05-25T10:56:03.483Z,1.43
2023-05-25T10:57:03.349Z,1.93
2023-05-25T10:58:03.307Z,2.08
2023-05-25T10:59:03.487Z,1.44
2023-05-25T11:00:35.177Z,1.76
2023-05-25T11:01:03.435Z,1.81
2023-05-25T11:02:03.361Z,1.90
2023-05-25T11:03:03.272Z,2.10
2023-05-25T11:04:03.189Z,2.17
2023-05-25T11:05:03.169Z,1.83
2023-05-25T11:06:03.483Z,2.04
2023-05-25T11:07:03.168Z,2.81
2023-05-25T11:08:10.794Z,2.72
2023-05-25T11:09:03.112Z,2.59
2023-05-25T11:10:03.056Z,3.04
2023-05-25T11:11:03.086Z,2.48
2023-05-25T11:12:03.067Z,2.70
2023-05-25T11:13:03.012Z,2.52
2023-05-25T11:14:03.485Z,2.59
2023-05-25T11:15:02.975Z,2.08
2023-05-25T11:16:02.949Z,2.43
2023-05-25T11:17:03.009Z,2.55
2023-05-25T11:18:02.992Z,2.53
2023-05-25T11:19:02.996Z,3.04
2023-05-25T11:20:02.880Z,2.54
2023-05-25T11:21:02.932Z,2.52
2023-05-25T11:22:02.829Z,2.75
2023-05-25T11:23:03.045Z,2.66
2023-05-25T11:24:02.870Z,2.20
2023-05-25T11:25:03.138Z,3.16
2023-05-25T11:26:02.747Z,2.86
2023-05-25T11:27:02.725Z,2.33
2023-05-25T11:28:02.715Z,2.37
2023-05-25T11:29:02.690Z,2.81
2023-05-25T11:30:02.669Z,2.56
2023-05-25T11:31:02.700Z,2.30
2023-05-25T11:32:03.085Z,2.21
2023-05-25T11:33:02.728Z,2.54
2023-05-25T11:34:02.612Z,2.74
2023-05-25T11:35:03.056Z,2.44
2023-05-25T11:36:02.588Z,2.46
2023-05-25T11:37:02.651Z,2.33
2023-05-25T11:38:02.665Z,2.60
2023-05-25T11:39:06.846Z,2.54
2023-05-25T11:40:03.024Z,2.36
2023-05-25T11:41:02.668Z,2.32
2023-05-25T11:42:02.648Z,2.69
2023-05-25T11:43:02.625Z,2.49
2023-05-25T11:44:03.133Z,2.85
2023-05-25T11:45:02.607Z,2.64
2023-05-25T11:46:02.621Z,3.17
2023-05-25T11:47:02.611Z,2.27
2023-05-25T11:48:02.595Z,2.55
2023-05-25T11:49:02.550Z,2.63
2023-05-25T11:50:03.126Z,2.60
2023-05-25T11:51:02.496Z,2.27
2023-05-25T11:52:02.490Z,2.43
2023-05-25T11:53:02.476Z,2.45
2023-05-25T11:54:02.461Z,2.27
2023-05-25T11:55:02.466Z,2.52
2023-05-25T11:56:08.013Z,2.39
2023-05-25T11:57:02.422Z,2.61
2023-05-25T11:58:02.436Z,2.66
2023-05-25T11:59:02.413Z,2.77
2023-05-25T12:00:02.410Z,3.35
2023-05-25T12:01:02.361Z,2.60
2023-05-25T12:02:02.348Z,3.63
2023-05-25T12:03:02.471Z,3.51
2023-05-25T12:04:02.559Z,3.42
2023-05-25T12:05:02.516Z,3.61
2023-05-25T12:06:02.313Z,3.95
2023-05-25T12:07:02.343Z,3.63
2023-05-25T12:08:02.363Z,4.03
2023-05-25T12:09:02.955Z,4.85
2023-05-25T12:10:02.381Z,4.17
2023-05-25T12:11:02.285Z,4.78
2023-05-25T12:12:03.001Z,4.79
2023-05-25T12:13:02.300Z,4.26
2023-05-25T12:14:02.302Z,4.16
2023-05-25T12:15:03.635Z,3.76
2023-05-25T12:16:02.523Z,4.71
2023-05-25T12:17:02.906Z,3.77
2023-05-25T12:18:02.583Z,3.93
2023-05-25T12:19:02.284Z,4.02
2023-05-25T12:20:02.363Z,3.78
2023-05-25T12:21:02.283Z,4.55
2023-05-25T12:22:02.615Z,4.16
2023-05-25T12:23:02.428Z,3.49
2023-05-25T12:24:02.314Z,3.75
2023-05-25T12:25:02.750Z,3.62
2023-05-25T12:26:01.736Z,4.07
2023-05-25T12:27:02.266Z,3.97
2023-05-25T12:28:02.279Z,3.77
2023-05-25T12:29:02.210Z,3.82
2023-05-25T12:30:02.231Z,4.16
2023-05-25T12:31:03.067Z,3.55
2023-05-25T12:32:02.189Z,4.12
2023-05-25T12:33:04.044Z,3.09
2023-05-25T12:34:03.121Z,3.18
2023-05-25T12:35:02.611Z,3.48
2023-05-25T12:36:02.114Z,3.91
2023-05-25T12:37:02.149Z,2.84
2023-05-25T12:38:02.237Z,4.06
2023-05-25T12:39:02.093Z,3.36
2023-05-25T12:40:02.576Z,3.68
2023-05-25T12:41:02.163Z,4.01
2023-05-25T12:42:02.044Z,3.50
2023-05-25T12:43:02.220Z,3.66
2023-05-25T12:44:02.409Z,3.95
2023-05-25T12:45:02.613Z,3.68
2023-05-25T12:46:02.264Z,3.53
2023-05-25T12:47:03.173Z,3.26
2023-05-25T12:48:02.513Z,3.88
2023-05-25T12:49:02.212Z,3.63
2023-05-25T12:50:02.928Z,3.67
2023-05-25T12:51:02.553Z,3.36
2023-05-25T12:52:02.497Z,3.61
2023-05-25T12:53:02.408Z,3.14
2023-05-25T12:54:03.148Z,3.44
2023-05-25T12:55:03.183Z,3.78
2023-05-25T12:56:03.148Z,3.57
2023-05-25T12:57:03.082Z,3.41
2023-05-25T12:58:02.986Z,3.19
2023-05-25T12:59:02.738Z,3.57
2023-05-25T13:00:03.044Z,2.83
2023-05-25T13:01:03.073Z,3.61
2023-05-25T13:02:02.990Z,3.16
2023-05-25T13:03:03.189Z,3.53
2023-05-25T13:04:03.008Z,3.22
2023-05-25T13:05:03.164Z,2.96
2023-05-25T13:06:03.308Z,3.54
2023-05-25T13:07:03.179Z,2.99
2023-05-25T13:08:03.249Z,3.41
2023-05-25T13:09:03.863Z,3.69
2023-05-25T13:10:03.639Z,3.28
2023-05-25T13:11:04.309Z,2.96
2023-05-25T13:12:03.471Z,3.05
2023-05-25T13:13:03.513Z,3.25
2023-05-25T13:14:03.526Z,3.05
2023-05-25T13:15:03.617Z,3.10
2023-05-25T13:16:03.674Z,3.49
2023-05-25T13:17:03.806Z,3.07
2023-05-25T13:18:03.624Z,3.15
2023-05-25T13:19:03.747Z,2.83
2023-05-25T13:20:03.808Z,3.18
2023-05-25T13:21:03.766Z,2.79
2023-05-25T13:22:03.883Z,3.22
2023-05-25T13:23:03.996Z,3.42
2023-05-25T13:24:04.053Z,3.37
2023-05-25T13:25:04.013Z,2.86
2023-05-25T13:26:04.167Z,3.92
2023-05-25T13:27:03.526Z,3.33
2023-05-25T13:28:04.078Z,3.51
2023-05-25T13:29:04.155Z,3.27